Terminal Aerodrome Forecast
Issued by NWS

Home | Current Version | Previous Version | Text Only | Print | Product List | Glossary On
Versions: 1 2 3 4 5 6 7 8 9 10 11 12 13
000
FTUS45 KRIW 191700
TAFBPI
TAF
KBPI 191721Z 1918/2018 VRB05KT P6SM SCT100 BKN200
     FM192000 VRB11KT P6SM VCTS SCT070CB BKN100
     FM200100 33007KT P6SM -SHRA OVC060
     FM200900 30011KT P6SM -SHRA BKN030 OVC050
     FM201600 VRB06KT P6SM VCSH FEW030 BKN060=

USA.gov is the U.S. government's official web portal to all federal, state and local government web resources and services.